Time;durP1;ratioP1;P1;durP2;ratioP2;P2;SDS_P1;SDS_P2;PMS_P1;PMS_P2;Temp;Humidity;BMP_temperature;BMP_pressure;BME280_temperature;BME280_humidity;BME280_pressure;Samples;Min_cycle;Max_cycle;Signal;HPM_P1;HPM_P2
2023/04/04 03:02:18;;;;;;;9.87;8.97;;;-1.90;99.90;;;;;;5063351;23;20731;-76
2023/04/04 03:04:44;;;;;;;9.67;9.07;;;-1.90;99.90;;;;;;4918395;29;20183;-77
2023/04/04 03:07:10;;;;;;;9.43;8.83;;;-1.90;99.90;;;;;;4918434;29;20218;-76
2023/04/04 03:09:36;;;;;;;10.47;9.77;;;-1.80;99.90;;;;;;4918100;29;20212;-76
2023/04/04 03:12:01;;;;;;;9.77;9.07;;;-1.90;99.90;;;;;;4903235;29;20210;-76
2023/04/04 03:14:28;;;;;;;9.60;9.00;;;-1.90;99.90;;;;;;4915155;29;20553;-76
2023/04/04 03:16:55;;;;;;;10.37;9.53;;;-2.00;99.90;;;;;;4929625;23;20259;-74
2023/04/04 03:19:22;;;;;;;10.47;9.77;;;-2.00;99.90;;;;;;4915570;29;20187;-74
2023/04/04 03:21:48;;;;;;;9.97;9.17;;;-2.10;99.90;;;;;;4916546;29;20222;-75
2023/04/04 03:24:14;;;;;;;10.90;10.07;;;-2.20;99.90;;;;;;4918531;29;20222;-75
2023/04/04 03:26:41;;;;;;;9.83;9.13;;;-2.20;99.90;;;;;;4904863;29;20271;-75
2023/04/04 03:29:07;;;;;;;10.20;9.43;;;-2.20;99.90;;;;;;4899300;29;20191;-75
2023/04/04 03:31:33;;;;;;;10.43;9.73;;;-2.20;99.90;;;;;;4899624;29;20651;-75
2023/04/04 03:33:59;;;;;;;8.83;8.30;;;-2.30;99.90;;;;;;4916430;29;20270;-75
2023/04/04 03:36:25;;;;;;;10.67;9.97;;;-2.30;99.90;;;;;;4898251;29;20212;-75
2023/04/04 03:38:51;;;;;;;11.40;10.43;;;-2.40;99.90;;;;;;4888397;29;20179;-75
2023/04/04 03:41:17;;;;;;;10.47;9.57;;;-2.30;99.90;;;;;;4918489;29;20187;-88
2023/04/04 03:43:43;;;;;;;10.43;9.60;;;-2.20;99.90;;;;;;4897683;29;20279;-75
2023/04/04 03:46:09;;;;;;;9.27;8.67;;;-2.20;99.90;;;;;;4906014;29;20203;-75
2023/04/04 03:48:36;;;;;;;10.90;10.00;;;-2.30;99.90;;;;;;4880130;29;20196;-75
2023/04/04 03:51:03;;;;;;;10.60;9.70;;;-2.40;99.90;;;;;;4897021;29;20222;-75
2023/04/04 03:53:30;;;;;;;10.90;9.87;;;-2.30;99.90;;;;;;4897194;29;20194;-75
2023/04/04 03:55:56;;;;;;;9.53;8.80;;;-2.40;99.90;;;;;;4897865;29;20207;-74
2023/04/04 03:58:24;;;;;;;11.00;10.00;;;-2.40;99.90;;;;;;4903109;29;20203;-74
2023/04/04 04:00:50;;;;;;;10.37;9.33;;;-2.50;99.90;;;;;;4900482;29;20247;-74
2023/04/04 04:03:15;;;;;;;10.43;9.63;;;-2.40;99.90;;;;;;4899729;29;20620;-74
2023/04/04 04:05:41;;;;;;;10.57;9.57;;;-2.40;99.90;;;;;;4917882;29;20238;-73
2023/04/04 04:08:07;;;;;;;9.83;9.07;;;-2.50;99.90;;;;;;4914176;29;20187;-74
2023/04/04 04:10:33;;;;;;;9.33;8.70;;;-2.50;99.90;;;;;;4915001;29;20187;-74
2023/04/04 04:13:00;;;;;;;8.97;8.37;;;-2.50;99.90;;;;;;4897542;29;20287;-73
2023/04/04 04:15:26;;;;;;;11.10;10.20;;;-2.60;99.90;;;;;;4915315;29;20211;-76
2023/04/04 04:17:52;;;;;;;9.20;8.50;;;-2.60;99.90;;;;;;4898638;29;20218;-73
2023/04/04 04:20:17;;;;;;;10.27;9.67;;;-2.60;99.90;;;;;;4908569;29;20207;-74
2023/04/04 04:22:47;;;;;;;10.23;9.43;;;-2.70;99.90;;;;;;4907470;29;20202;-73
2023/04/04 04:25:15;;;;;;;9.70;8.90;;;-2.50;99.90;;;;;;4915278;29;20190;-74
2023/04/04 04:27:41;;;;;;;10.47;9.47;;;-2.40;99.90;;;;;;4915709;29;20206;-74
2023/04/04 04:30:08;;;;;;;10.70;9.90;;;-2.40;99.90;;;;;;4933730;29;20559;-76
2023/04/04 04:32:34;;;;;;;11.30;10.33;;;-2.30;99.90;;;;;;4935975;29;20178;-75
2023/04/04 04:35:00;;;;;;;13.43;12.40;;;-2.30;99.90;;;;;;4939230;29;20714;-75
2023/04/04 04:37:26;;;;;;;13.33;12.30;;;-2.30;99.90;;;;;;4934347;29;20565;-75
2023/04/04 04:39:52;;;;;;;12.57;11.73;;;-2.30;99.90;;;;;;4917366;29;20214;-75
2023/04/04 04:42:18;;;;;;;10.70;9.90;;;-2.20;99.90;;;;;;4937173;29;20254;-74
2023/04/04 04:44:44;;;;;;;9.23;8.47;;;-2.30;99.90;;;;;;4902597;29;20281;-74
2023/04/04 04:47:10;;;;;;;10.37;9.37;;;-2.30;99.90;;;;;;4898186;29;20359;-74
2023/04/04 04:49:36;;;;;;;9.43;8.73;;;-2.40;99.90;;;;;;4914484;29;20182;-75
2023/04/04 04:52:01;;;;;;;8.93;8.33;;;-2.40;99.90;;;;;;4914935;29;20745;-75
2023/04/04 04:54:27;;;;;;;11.03;10.03;;;-2.40;99.90;;;;;;4915028;29;20185;-75
2023/04/04 04:56:53;;;;;;;12.70;11.73;;;-2.50;99.90;;;;;;4914553;29;20229;-74
2023/04/04 04:59:19;;;;;;;12.77;11.80;;;-2.50;99.90;;;;;;4914369;29;20234;-74
2023/04/04 05:01:45;;;;;;;11.60;10.60;;;-2.60;99.90;;;;;;4914494;29;20219;-74
2023/04/04 05:04:11;;;;;;;11.37;10.23;;;-2.60;99.90;;;;;;4914597;29;20206;-75
2023/04/04 05:06:37;;;;;;;11.93;10.83;;;-2.60;99.90;;;;;;4915011;29;20701;-75
2023/04/04 05:09:03;;;;;;;12.73;11.27;;;-2.60;99.90;;;;;;4914351;29;20273;-75
2023/04/04 05:11:29;;;;;;;13.40;12.20;;;-2.60;99.90;;;;;;4897656;29;20274;-71
2023/04/04 05:13:56;;;;;;;15.57;10.43;;;-2.50;99.90;;;;;;4898145;29;20187;-71
2023/04/04 05:16:21;;;;;;;10.40;9.63;;;-2.40;99.90;;;;;;4915370;29;20738;-70
2023/04/04 05:18:47;;;;;;;10.53;9.80;;;-2.30;99.90;;;;;;4933159;29;20194;-70
2023/04/04 05:21:13;;;;;;;10.67;9.87;;;-2.20;99.90;;;;;;4916884;29;20193;-71
2023/04/04 05:23:39;;;;;;;11.53;10.70;;;-1.90;99.90;;;;;;4933624;29;20249;-71
2023/04/04 05:26:05;;;;;;;10.30;9.60;;;-1.70;99.90;;;;;;4933029;29;20280;-71
2023/04/04 05:28:31;;;;;;;10.83;10.03;;;-1.50;99.90;;;;;;4920152;29;20237;-71
2023/04/04 05:30:56;;;;;;;12.63;11.63;;;-1.20;99.90;;;;;;4914904;29;20651;-74
2023/04/04 05:33:22;;;;;;;16.27;13.13;;;-1.10;99.90;;;;;;4914953;29;20551;-74
2023/04/04 05:35:48;;;;;;;13.37;12.27;;;-0.90;99.90;;;;;;4901208;29;20273;-74
2023/04/04 05:38:14;;;;;;;15.67;13.80;;;-0.70;99.90;;;;;;4901473;29;20175;-74
2023/04/04 05:40:40;;;;;;;10.87;9.97;;;-0.50;99.90;;;;;;4917740;29;20652;-74
2023/04/04 05:43:07;;;;;;;9.80;9.00;;;-0.30;99.90;;;;;;4921248;29;20179;-75
2023/04/04 05:45:32;;;;;;;10.43;9.63;;;-0.10;99.90;;;;;;4921530;29;20301;-74
2023/04/04 05:47:58;;;;;;;9.83;9.03;;;0.20;99.90;;;;;;4919172;29;20677;-74
2023/04/04 05:50:24;;;;;;;8.83;8.13;;;0.50;99.90;;;;;;4928261;29;20190;-73
2023/04/04 05:52:53;;;;;;;9.23;8.43;;;0.90;99.90;;;;;;4932093;29;20179;-73
2023/04/04 05:55:20;;;;;;;9.03;8.33;;;1.30;99.90;;;;;;4934291;29;20221;-75
2023/04/04 05:57:50;;;;;;;8.93;8.33;;;1.60;99.90;;;;;;4933787;29;20674;-72
2023/04/04 06:00:18;;;;;;;9.47;7.80;;;1.90;99.90;;;;;;4914215;29;20187;-72
2023/04/04 06:02:44;;;;;;;8.40;7.70;;;2.30;99.90;;;;;;4929372;29;20565;-73
2023/04/04 06:05:10;;;;;;;8.43;7.73;;;2.40;99.90;;;;;;4922588;29;20199;-72
2023/04/04 06:07:36;;;;;;;8.90;8.30;;;2.20;99.90;;;;;;4920110;29;20571;-72
2023/04/04 06:10:03;;;;;;;7.77;7.27;;;1.90;99.90;;;;;;4942228;29;20465;-72
2023/04/04 06:12:29;;;;;;;8.80;8.10;;;1.70;99.90;;;;;;4933248;29;20179;-72
2023/04/04 06:14:55;;;;;;;8.90;8.10;;;1.60;99.90;;;;;;4900876;29;20183;-73
2023/04/04 06:17:21;;;;;;;9.90;9.10;;;2.10;99.90;;;;;;4900742;29;20746;-73
2023/04/04 06:19:46;;;;;;;11.27;10.47;;;2.90;99.90;;;;;;4917385;29;20221;-73
2023/04/04 06:22:12;;;;;;;10.70;10.00;;;3.50;99.90;;;;;;4917769;29;20183;-72
2023/04/04 06:24:38;;;;;;;8.40;7.70;;;4.10;99.90;;;;;;4917630;29;20215;-72
2023/04/04 06:27:03;;;;;;;8.50;7.73;;;4.40;99.90;;;;;;4917549;29;20219;-72
2023/04/04 06:29:30;;;;;;;7.80;7.30;;;4.80;99.90;;;;;;4917213;29;20625;-73
2023/04/04 06:31:57;;;;;;;7.60;7.00;;;4.80;99.90;;;;;;4917755;29;20211;-72
2023/04/04 06:34:22;;;;;;;10.47;6.93;;;5.20;99.90;;;;;;4917551;29;20225;-72
2023/04/04 06:36:48;;;;;;;8.20;7.53;;;5.50;99.90;;;;;;4917419;29;20247;-72
2023/04/04 06:39:14;;;;;;;8.47;7.70;;;5.70;99.90;;;;;;4900341;29;20328;-72
2023/04/04 06:41:40;;;;;;;7.43;6.83;;;6.10;99.90;;;;;;4917488;29;20238;-72
2023/04/04 06:44:06;;;;;;;7.90;7.30;;;6.20;99.90;;;;;;4917364;29;20739;-72
2023/04/04 06:46:32;;;;;;;7.30;6.70;;;6.60;99.90;;;;;;4916219;29;20310;-72
2023/04/04 06:48:58;;;;;;;6.30;5.90;;;6.50;99.90;;;;;;4917097;29;20179;-72
2023/04/04 06:51:24;;;;;;;6.60;6.17;;;6.40;99.90;;;;;;4900397;29;20226;-72
2023/04/04 06:53:50;;;;;;;7.17;6.63;;;5.70;99.90;;;;;;4917139;29;20190;-73
2023/04/04 06:56:16;;;;;;;8.00;7.30;;;5.40;99.90;;;;;;4917703;29;20213;-72
2023/04/04 06:58:42;;;;;;;7.23;6.73;;;5.70;99.90;;;;;;4917061;29;20265;-73
2023/04/04 07:01:07;;;;;;;7.40;6.70;;;6.00;99.90;;;;;;4919314;29;20179;-73
2023/04/04 07:03:33;;;;;;;6.27;5.77;;;6.70;99.70;;;;;;4900450;29;20265;-73
2023/04/04 07:06:03;;;;;;;6.73;6.23;;;6.80;96.50;;;;;;4916897;29;20580;-73
2023/04/04 07:08:29;;;;;;;7.30;6.57;;;6.60;97.30;;;;;;4916645;29;20270;-73
2023/04/04 07:10:55;;;;;;;6.43;6.03;;;6.50;96.80;;;;;;4917117;29;20175;-73
2023/04/04 07:13:22;;;;;;;6.37;5.97;;;6.40;97.10;;;;;;4917250;29;20191;-73
2023/04/04 07:15:48;;;;;;;6.77;6.27;;;6.90;96.10;;;;;;4917099;29;20222;-73
2023/04/04 07:18:15;;;;;;;5.80;5.33;;;7.20;94.70;;;;;;4899874;29;20191;-72
2023/04/04 07:20:42;;;;;;;7.03;6.53;;;7.20;93.70;;;;;;4916487;29;20179;-73
2023/04/04 07:23:11;;;;;;;8.17;7.63;;;6.70;94.40;;;;;;4916560;29;20194;-73
2023/04/04 07:25:38;;;;;;;6.27;5.87;;;6.70;94.70;;;;;;4899561;29;20675;-73
2023/04/04 07:28:04;;;;;;;5.77;5.47;;;6.80;92.80;;;;;;4916480;29;20218;-72
2023/04/04 07:30:31;;;;;;;6.47;5.97;;;6.30;94.10;;;;;;4916093;29;20190;-72
2023/04/04 07:33:01;;;;;;;5.80;5.40;;;6.20;94.40;;;;;;4913447;29;20254;-73
2023/04/04 07:35:27;;;;;;;5.50;5.20;;;6.10;93.70;;;;;;4930689;29;20650;-73
2023/04/04 07:37:53;;;;;;;9.30;8.30;;;5.80;93.20;;;;;;4916312;29;20191;-72
2023/04/04 07:40:20;;;;;;;25.10;13.93;;;5.50;93.60;;;;;;4916080;29;20561;-73
2023/04/04 07:42:49;;;;;;;6.53;5.93;;;5.70;94.10;;;;;;4899349;29;20187;-72
2023/04/04 07:45:16;;;;;;;6.93;6.27;;;6.00;93.90;;;;;;4916197;29;20198;-72
2023/04/04 07:47:43;;;;;;;5.40;5.03;;;6.30;93.40;;;;;;4916200;29;20635;-73
2023/04/04 07:50:10;;;;;;;4.97;4.70;;;6.40;92.90;;;;;;4915719;29;20191;-73
2023/04/04 07:52:36;;;;;;;9.40;7.20;;;6.60;92.30;;;;;;4899256;29;20175;-73
2023/04/04 07:55:02;;;;;;;5.27;4.97;;;6.70;92.70;;;;;;4899234;29;20187;-73
2023/04/04 07:57:28;;;;;;;6.10;5.10;;;6.90;91.10;;;;;;4915928;29;20210;-73
2023/04/04 07:59:54;;;;;;;5.87;5.40;;;6.80;91.50;;;;;;4916095;29;20390;-73
2023/04/04 08:02:20;;;;;;;5.37;5.07;;;6.50;90.90;;;;;;4920483;29;20193;-73
2023/04/04 08:04:46;;;;;;;5.43;5.17;;;6.70;91.20;;;;;;4924873;29;20187;-73
2023/04/04 08:07:11;;;;;;;4.80;4.57;;;6.70;90.40;;;;;;4918321;29;20222;-73
2023/04/04 08:09:37;;;;;;;5.33;4.83;;;6.40;90.80;;;;;;4916146;29;20274;-74
2023/04/04 08:12:04;;;;;;;5.73;5.33;;;6.30;91.50;;;;;;4915993;29;20611;-73
2023/04/04 08:14:30;;;;;;;5.53;5.23;;;6.40;91.30;;;;;;4915698;29;20194;-73
2023/04/04 08:16:56;;;;;;;5.60;5.10;;;6.50;90.60;;;;;;4898823;29;20222;-73
2023/04/04 08:19:22;;;;;;;5.97;5.47;;;6.40;91.10;;;;;;4915417;29;20691;-73
2023/04/04 08:21:48;;;;;;;6.37;5.77;;;6.90;91.00;;;;;;4915627;29;20225;-73
2023/04/04 08:24:14;;;;;;;5.50;5.20;;;6.90;91.00;;;;;;4915658;29;20246;-73
2023/04/04 08:26:41;;;;;;;5.57;5.27;;;6.90;90.10;;;;;;4898788;29;20222;-74
2023/04/04 08:29:06;;;;;;;7.00;6.40;;;6.80;90.00;;;;;;4898541;29;20187;-73
2023/04/04 08:31:33;;;;;;;5.63;4.90;;;7.00;90.00;;;;;;4915706;29;20186;-74
2023/04/04 08:34:00;;;;;;;5.77;5.37;;;7.00;89.60;;;;;;4915460;29;20187;-74
2023/04/04 08:36:27;;;;;;;5.87;5.43;;;6.80;89.80;;;;;;4915366;29;20222;-73
2023/04/04 08:38:53;;;;;;;4.97;4.77;;;7.00;89.80;;;;;;4915142;29;20182;-73
2023/04/04 08:41:19;;;;;;;5.67;5.27;;;6.70;90.00;;;;;;4915318;29;20675;-74
2023/04/04 08:43:53;;;;;;;5.53;5.20;;;6.60;91.00;;;;;;4915302;29;20194;-74
2023/04/04 08:46:20;;;;;;;8.30;5.03;;;6.80;89.60;;;;;;4916088;29;20211;-73
2023/04/04 08:48:48;;;;;;;6.30;5.80;;;6.60;90.40;;;;;;4915920;29;20191;-74
2023/04/04 08:51:16;;;;;;;5.73;5.33;;;6.70;90.50;;;;;;4915328;29;20189;-74
2023/04/04 08:53:42;;;;;;;6.53;6.00;;;7.40;89.10;;;;;;4915328;29;20183;-74
2023/04/04 08:56:09;;;;;;;5.57;5.27;;;7.50;88.40;;;;;;4898335;29;20298;-73
2023/04/04 08:58:37;;;;;;;5.80;5.40;;;7.50;86.40;;;;;;4914954;29;20207;-74
2023/04/04 09:01:05;;;;;;;5.87;5.30;;;7.00;87.20;;;;;;4926770;29;20191;-73
2023/04/04 09:03:33;;;;;;;6.00;5.60;;;6.70;87.20;;;;;;4917727;29;20186;-74
2023/04/04 09:06:01;;;;;;;5.30;4.90;;;6.80;89.20;;;;;;4915007;29;20211;-74
2023/04/04 09:08:30;;;;;;;6.07;5.33;;;7.40;86.00;;;;;;4914789;29;20175;-74
2023/04/04 09:10:56;;;;;;;8.67;5.60;;;7.60;85.20;;;;;;4919041;29;20211;-74
2023/04/04 09:13:22;;;;;;;5.57;5.20;;;8.40;83.80;;;;;;4918981;29;20175;-74
2023/04/04 09:15:53;;;;;;;7.50;5.27;;;9.00;82.30;;;;;;4942867;23;20242;-71
2023/04/04 09:18:19;;;;;;;4.93;4.63;;;9.20;79.20;;;;;;4937153;29;20667;-71
2023/04/04 09:20:46;;;;;;;5.60;5.20;;;9.00;80.30;;;;;;4937883;29;20194;-72
2023/04/04 09:23:13;;;;;;;6.30;6.00;;;8.70;81.60;;;;;;4920864;29;20190;-71
2023/04/04 09:25:50;;;;;;;5.47;5.10;;;9.00;78.10;;;;;;4917865;29;20225;-72
2023/04/04 09:28:16;;;;;;;5.50;5.20;;;8.30;80.40;;;;;;4918285;29;20218;-71
2023/04/04 09:30:46;;;;;;;5.10;4.80;;;8.30;80.00;;;;;;4918629;29;20190;-71
2023/04/04 09:33:14;;;;;;;6.57;6.07;;;7.80;81.00;;;;;;4902042;29;20554;-72
2023/04/04 09:35:44;;;;;;;5.97;5.47;;;7.80;80.90;;;;;;4901541;29;20207;-71
2023/04/04 09:38:10;;;;;;;6.33;5.90;;;7.90;83.70;;;;;;4901654;29;20274;-71
2023/04/04 09:40:36;;;;;;;5.47;5.10;;;8.60;85.30;;;;;;4901186;29;20275;-71
2023/04/04 09:43:06;;;;;;;5.70;5.40;;;9.20;79.40;;;;;;4918233;29;20197;-71
2023/04/04 09:45:40;;;;;;;5.47;5.17;;;8.40;76.80;;;;;;4918230;29;20262;-71
2023/04/04 09:48:08;;;;;;;6.17;5.60;;;7.80;78.20;;;;;;4901446;29;20218;-71
2023/04/04 09:50:34;;;;;;;10.90;5.47;;;8.10;78.20;;;;;;4901144;29;20223;-72
2023/04/04 09:53:00;;;;;;;5.17;4.80;;;8.60;79.20;;;;;;4918201;29;20188;-72
2023/04/04 09:55:34;;;;;;;5.87;5.50;;;8.90;76.10;;;;;;4918140;29;20183;-72
2023/04/04 09:58:13;;;;;;;8.47;7.87;;;9.40;75.70;;;;;;4901453;29;20273;-72
2023/04/04 10:00:47;;;;;;;8.13;7.63;;;9.90;73.50;;;;;;4918198;29;20183;-72
2023/04/04 10:03:16;;;;;;;8.43;7.70;;;9.70;72.00;;;;;;4918162;29;20226;-72
2023/04/04 10:05:45;;;;;;;7.83;7.43;;;9.10;73.80;;;;;;4917836;29;20199;-72
2023/04/04 10:08:21;;;;;;;8.07;7.47;;;9.30;74.40;;;;;;4901035;29;20211;-71
2023/04/04 10:10:48;;;;;;;7.87;7.47;;;8.90;72.60;;;;;;4917795;29;20242;-71
2023/04/04 10:13:21;;;;;;;6.83;6.43;;;8.90;73.60;;;;;;4900772;29;20179;-72
2023/04/04 10:15:47;;;;;;;6.90;6.40;;;9.70;72.10;;;;;;4917401;29;20259;-71
2023/04/04 10:18:14;;;;;;;7.90;7.50;;;9.60;70.50;;;;;;4901027;29;20211;-73
2023/04/04 10:20:42;;;;;;;6.43;5.93;;;10.00;69.60;;;;;;4917326;29;20198;-71
2023/04/04 10:23:08;;;;;;;7.33;6.67;;;10.70;66.70;;;;;;4900698;29;20183;-71
2023/04/04 10:25:35;;;;;;;5.80;5.40;;;11.00;67.60;;;;;;4917936;29;20558;-72
2023/04/04 10:28:01;;;;;;;5.57;5.20;;;10.90;66.30;;;;;;4900468;29;20216;-72
2023/04/04 10:30:27;;;;;;;6.07;5.77;;;10.70;64.90;;;;;;4917043;29;20187;-72
2023/04/04 10:33:42;;;;;;;7.20;6.50;;;10.80;66.30;;;;;;4900738;29;20720;-71
2023/04/04 10:36:10;;;;;;;5.27;4.80;;;10.60;67.60;;;;;;4890132;29;20259;-71
2023/04/04 10:38:47;;;;;;;6.10;5.57;;;11.10;64.90;;;;;;4900253;29;20274;-72
2023/04/04 10:41:13;;;;;;;5.70;5.30;;;11.30;63.10;;;;;;4917327;29;20212;-72
2023/04/04 10:43:41;;;;;;;5.47;5.00;;;11.20;63.90;;;;;;4917454;29;20179;-72
2023/04/04 10:46:14;;;;;;;5.60;5.10;;;11.00;63.20;;;;;;4917235;29;20198;-71
2023/04/04 10:48:41;;;;;;;5.47;5.13;;;11.00;63.00;;;;;;4916999;29;20325;-72
2023/04/04 10:51:09;;;;;;;5.80;5.40;;;11.00;62.80;;;;;;4917151;29;20195;-72
2023/04/04 10:53:37;;;;;;;5.97;5.57;;;10.90;63.40;;;;;;4917192;29;20259;-71
2023/04/04 10:56:03;;;;;;;5.37;5.07;;;11.10;62.60;;;;;;4917300;29;20255;-72
2023/04/04 10:58:29;;;;;;;5.47;4.93;;;10.90;61.10;;;;;;4916862;29;20185;-71
2023/04/04 11:00:55;;;;;;;5.50;5.20;;;10.50;62.80;;;;;;4917036;29;20176;-71
2023/04/04 11:03:21;;;;;;;5.97;5.63;;;10.60;62.40;;;;;;4900227;29;20186;-71
2023/04/04 11:05:50;;;;;;;6.30;5.60;;;11.40;60.60;;;;;;4900040;29;20202;-71
2023/04/04 11:08:20;;;;;;;6.87;6.17;;;11.20;60.20;;;;;;4916568;29;20221;-71
2023/04/04 11:10:48;;;;;;;7.00;6.33;;;11.10;62.00;;;;;;4916730;29;20179;-71
2023/04/04 11:13:31;;;;;;;6.20;5.70;;;11.20;63.00;;;;;;4916748;29;20182;-71
2023/04/04 11:15:58;;;;;;;5.97;5.47;;;12.00;61.00;;;;;;4916553;29;20213;-72
2023/04/04 11:18:47;;;;;;;6.80;6.33;;;12.40;60.70;;;;;;4899435;29;20183;-71
2023/04/04 11:21:26;;;;;;;12.13;11.10;;;12.70;58.50;;;;;;4909072;29;20199;-71
2023/04/04 11:24:01;;;;;;;7.03;6.20;;;13.50;56.50;;;;;;4917112;29;20222;-71
2023/04/04 11:26:27;;;;;;;5.03;4.77;;;13.80;53.50;;;;;;4918108;29;20313;-71
2023/04/04 11:29:01;;;;;;;7.23;5.67;;;13.20;53.80;;;;;;4918285;29;20211;-73
2023/04/04 11:31:31;;;;;;;7.87;7.37;;;12.50;55.20;;;;;;4899563;29;20186;-71
2023/04/04 11:34:12;;;;;;;7.23;6.83;;;12.20;56.30;;;;;;4916382;29;20669;-71
2023/04/04 11:36:39;;;;;;;7.83;7.33;;;11.80;56.60;;;;;;4916349;29;20206;-73
2023/04/04 11:39:27;;;;;;;10.40;9.70;;;11.50;56.40;;;;;;4899014;29;20286;-71
2023/04/04 11:42:12;;;;;;;8.60;8.13;;;11.60;57.50;;;;;;4899364;29;20192;-71
2023/04/04 11:45:03;;;;;;;8.90;8.40;;;12.10;57.50;;;;;;4899503;29;20183;-71
2023/04/04 11:47:30;;;;;;;7.93;7.27;;;12.70;56.20;;;;;;4909372;29;20254;-71
2023/04/04 11:49:57;;;;;;;7.63;7.00;;;13.10;55.80;;;;;;4916034;29;20183;-71
2023/04/04 11:52:24;;;;;;;5.90;5.50;;;13.60;54.80;;;;;;4916562;29;20286;-71
2023/04/04 11:54:50;;;;;;;6.97;6.47;;;13.90;50.70;;;;;;4899208;29;20193;-71
2023/04/04 11:57:17;;;;;;;6.23;5.93;;;13.20;53.70;;;;;;4917071;29;20215;-71
2023/04/04 11:59:45;;;;;;;6.37;5.80;;;12.80;53.50;;;;;;4915569;29;20223;-71
2023/04/04 12:02:19;;;;;;;6.50;6.10;;;13.00;54.30;;;;;;4915992;29;20187;-71
2023/04/04 12:04:46;;;;;;;7.53;7.03;;;13.80;52.70;;;;;;4915846;29;20187;-71
2023/04/04 12:07:13;;;;;;;6.43;5.93;;;14.40;51.80;;;;;;4898775;29;20218;-71
2023/04/04 12:09:39;;;;;;;6.47;6.13;;;14.80;50.30;;;;;;4915408;29;20239;-71
2023/04/04 12:12:06;;;;;;;6.60;6.20;;;14.30;50.60;;;;;;4915768;29;20185;-71
2023/04/04 12:14:32;;;;;;;6.80;6.40;;;14.00;50.60;;;;;;4915734;29;20381;-71
2023/04/04 12:17:01;;;;;;;8.00;7.40;;;14.10;51.70;;;;;;4915686;29;20229;-71
2023/04/04 12:19:27;;;;;;;6.33;5.93;;;13.90;52.30;;;;;;4915231;29;20671;-71
2023/04/04 12:21:56;;;;;;;6.63;6.23;;;14.80;49.50;;;;;;4915451;29;20231;-72
2023/04/04 12:24:22;;;;;;;5.90;5.60;;;14.80;50.30;;;;;;4915429;29;20564;-72
2023/04/04 12:26:50;;;;;;;5.60;5.07;;;15.90;48.80;;;;;;4915300;29;20221;-71
2023/04/04 12:29:18;;;;;;;5.20;4.90;;;16.30;46.80;;;;;;4915001;29;20682;-71
2023/04/04 12:31:46;;;;;;;5.20;4.80;;;15.70;46.40;;;;;;4915339;29;20190;-71
2023/04/04 12:34:22;;;;;;;6.50;5.10;;;15.00;47.10;;;;;;4898394;29;20223;-71
2023/04/04 12:36:51;;;;;;;5.30;4.80;;;15.60;47.90;;;;;;4898947;29;20202;-71
2023/04/04 12:39:19;;;;;;;4.97;4.77;;;14.90;47.80;;;;;;4915166;29;20645;-71
2023/04/04 12:41:52;;;;;;;5.10;4.80;;;15.10;47.40;;;;;;4915644;29;20536;-72
2023/04/04 12:44:34;;;;;;;5.80;5.30;;;14.70;48.10;;;;;;4914900;29;20588;-71
2023/04/04 12:47:03;;;;;;;31.77;5.60;;;14.10;48.90;;;;;;4898424;29;20305;-71
2023/04/04 12:49:38;;;;;;;6.23;5.60;;;14.50;49.70;;;;;;4898019;29;20581;-71
2023/04/04 12:52:07;;;;;;;5.60;5.30;;;14.30;48.80;;;;;;4915162;29;20185;-71
2023/04/04 12:54:39;;;;;;;6.70;6.20;;;14.70;48.90;;;;;;4898324;29;20234;-72
2023/04/04 12:57:06;;;;;;;5.10;4.70;;;15.50;48.80;;;;;;4914906;29;20306;-72
2023/04/04 12:59:35;;;;;;;5.50;5.10;;;15.80;46.70;;;;;;4897890;29;20190;-72
2023/04/04 13:02:10;;;;;;;4.67;4.37;;;15.90;46.50;;;;;;4898321;29;20183;-72
2023/04/04 13:04:36;;;;;;;5.00;4.70;;;16.40;45.80;;;;;;4914983;29;20191;-72
2023/04/04 13:07:03;;;;;;;5.90;5.50;;;17.10;44.40;;;;;;4898118;29;20354;-71
2023/04/04 13:09:29;;;;;;;5.40;4.90;;;18.20;44.40;;;;;;4914574;29;20243;-72
2023/04/04 13:12:01;;;;;;;5.23;4.80;;;18.30;42.20;;;;;;4914877;29;20191;-71
2023/04/04 13:14:48;;;;;;;5.50;5.00;;;17.70;43.70;;;;;;4914922;29;20187;-72
2023/04/04 13:17:14;;;;;;;5.20;4.90;;;17.10;44.50;;;;;;4914461;29;20225;-71
2023/04/04 13:19:40;;;;;;;5.07;4.77;;;17.10;44.50;;;;;;4914994;29;20257;-71
2023/04/04 13:22:08;;;;;;;5.33;5.03;;;16.60;43.60;;;;;;4898022;29;20231;-71
2023/04/04 13:24:33;;;;;;;5.07;4.77;;;15.80;45.10;;;;;;4897945;29;20266;-71
2023/04/04 13:27:00;;;;;;;4.93;4.57;;;15.70;45.30;;;;;;4914668;29;20313;-71
2023/04/04 13:29:26;;;;;;;4.80;4.50;;;16.50;45.20;;;;;;4914550;29;20190;-71
2023/04/04 13:31:52;;;;;;;5.13;4.73;;;16.10;44.70;;;;;;4914913;29;20609;-72
2023/04/04 13:34:20;;;;;;;4.67;4.43;;;15.70;45.70;;;;;;4897969;29;20186;-71
2023/04/04 13:36:46;;;;;;;4.97;4.67;;;16.20;44.80;;;;;;4914572;29;20467;-71
2023/04/04 13:39:12;;;;;;;5.10;4.80;;;16.00;45.20;;;;;;4914353;29;20184;-71
2023/04/04 13:41:38;;;;;;;4.87;4.57;;;16.20;45.30;;;;;;4897891;29;20242;-72
2023/04/04 13:44:04;;;;;;;4.93;4.57;;;16.00;44.40;;;;;;4898033;29;20178;-72
2023/04/04 13:46:30;;;;;;;4.97;4.57;;;16.20;45.30;;;;;;4914497;29;20282;-72
2023/04/04 13:48:56;;;;;;;5.30;4.80;;;16.40;44.90;;;;;;4897447;29;20211;-72
2023/04/04 13:51:23;;;;;;;9.70;4.60;;;17.20;44.90;;;;;;4914383;29;20194;-71
2023/04/04 13:53:49;;;;;;;4.70;4.47;;;17.80;43.20;;;;;;4914597;29;20530;-71
2023/04/04 13:56:15;;;;;;;5.30;4.90;;;16.90;43.20;;;;;;4917116;29;20206;-71
2023/04/04 13:58:41;;;;;;;5.17;4.77;;;15.80;44.10;;;;;;4918202;29;20278;-71
2023/04/04 14:01:08;;;;;;;5.47;5.07;;;15.40;45.40;;;;;;4918262;29;20556;-71
2023/04/04 14:03:35;;;;;;;5.40;5.10;;;15.80;45.30;;;;;;4901301;29;20183;-72
2023/04/04 14:06:01;;;;;;;6.73;5.10;;;16.50;45.40;;;;;;4901795;29;20571;-71
2023/04/04 14:08:27;;;;;;;4.83;4.43;;;16.90;44.60;;;;;;4901425;29;20642;-72
2023/04/04 14:10:53;;;;;;;5.50;5.10;;;16.90;43.00;;;;;;4903621;29;20286;-73
2023/04/04 14:13:18;;;;;;;5.07;4.77;;;16.70;44.10;;;;;;4919331;29;20600;-73
2023/04/04 14:15:46;;;;;;;5.40;5.10;;;17.50;42.30;;;;;;4918002;29;20221;-71
2023/04/04 14:18:11;;;;;;;7.20;5.17;;;17.30;43.30;;;;;;4918070;29;20270;-73
2023/04/04 14:20:37;;;;;;;5.73;5.33;;;18.10;42.60;;;;;;4917117;29;20286;-71
2023/04/04 14:23:04;;;;;;;5.30;4.80;;;18.10;41.40;;;;;;4917614;29;20275;-71
2023/04/04 14:25:30;;;;;;;8.67;5.40;;;16.60;42.30;;;;;;4900414;29;20198;-71
2023/04/04 14:27:55;;;;;;;5.40;5.10;;;14.90;45.20;;;;;;4917336;29;20211;-71
2023/04/04 14:30:21;;;;;;;5.40;5.00;;;15.40;46.00;;;;;;4917043;29;20182;-71
2023/04/04 14:32:49;;;;;;;4.37;4.13;;;15.70;45.90;;;;;;4917447;29;20190;-71
2023/04/04 14:35:16;;;;;;;5.17;4.77;;;15.70;45.50;;;;;;4917806;29;20183;-71
2023/04/04 14:37:42;;;;;;;5.63;5.23;;;15.50;46.60;;;;;;4900549;29;20632;-71
2023/04/04 14:40:08;;;;;;;4.57;4.27;;;15.20;46.70;;;;;;4900172;29;20274;-71
2023/04/04 14:42:34;;;;;;;7.90;5.87;;;15.40;45.70;;;;;;4917607;29;20185;-71
2023/04/04 14:45:03;;;;;;;6.33;4.90;;;15.00;46.70;;;;;;4900361;29;20183;-71
2023/04/04 14:47:30;;;;;;;4.70;4.40;;;16.60;45.50;;;;;;4917073;29;20246;-71
2023/04/04 14:49:55;;;;;;;4.87;4.57;;;16.10;43.30;;;;;;4899839;29;20270;-71
2023/04/04 14:52:21;;;;;;;7.10;6.50;;;14.00;46.90;;;;;;4917379;29;20266;-71
2023/04/04 14:54:47;;;;;;;7.20;6.67;;;12.50;50.00;;;;;;4916931;29;20187;-71
2023/04/04 14:57:13;;;;;;;8.90;8.40;;;11.50;52.30;;;;;;4896198;29;20218;-70
2023/04/04 14:59:38;;;;;;;8.30;7.90;;;11.80;52.60;;;;;;4901503;29;20703;-71
2023/04/04 15:02:05;;;;;;;8.50;8.00;;;13.00;50.90;;;;;;4897770;29;20656;-71
2023/04/04 15:04:31;;;;;;;7.63;7.00;;;13.20;50.30;;;;;;4925677;29;20183;-71
2023/04/04 15:07:01;;;;;;;9.17;6.57;;;14.80;48.20;;;;;;4934475;29;20217;-71
2023/04/04 15:09:27;;;;;;;5.10;4.90;;;15.90;45.80;;;;;;4935612;29;20539;-71
2023/04/04 15:11:53;;;;;;;7.80;7.20;;;14.70;46.30;;;;;;4935165;29;20581;-72
2023/04/04 15:14:19;;;;;;;7.23;6.83;;;14.00;48.80;;;;;;4918372;29;20193;-72
2023/04/04 15:16:45;;;;;;;7.10;6.60;;;13.60;49.60;;;;;;4930400;23;20785;-73
2023/04/04 15:19:12;;;;;;;7.70;7.13;;;14.10;49.00;;;;;;4917113;29;20270;-73
2023/04/04 15:21:38;;;;;;;6.57;6.20;;;14.90;48.60;;;;;;4918442;29;20273;-73
2023/04/04 15:24:04;;;;;;;7.83;7.30;;;14.30;47.40;;;;;;4934922;29;20277;-73
2023/04/04 15:26:30;;;;;;;8.30;7.80;;;12.50;51.20;;;;;;4928849;29;20215;-73
2023/04/04 15:28:56;;;;;;;8.80;8.30;;;11.60;53.10;;;;;;4899391;29;20241;-73
2023/04/04 15:31:22;;;;;;;8.10;7.70;;;11.10;54.80;;;;;;4899520;29;20186;-73
2023/04/04 15:33:47;;;;;;;7.93;7.40;;;10.40;54.80;;;;;;4916236;29;20188;-73
2023/04/04 15:36:13;;;;;;;8.33;7.73;;;10.80;56.00;;;;;;4899344;29;20207;-73
2023/04/04 15:38:39;;;;;;;9.00;8.30;;;12.80;52.70;;;;;;4899315;29;20186;-71
2023/04/04 15:41:07;;;;;;;8.90;8.40;;;14.20;50.70;;;;;;4916436;29;20186;-72
2023/04/04 15:43:33;;;;;;;7.93;7.50;;;13.90;49.20;;;;;;4916389;29;20625;-72
2023/04/04 15:45:58;;;;;;;8.70;8.07;;;13.40;50.50;;;;;;4916487;29;20187;-72
2023/04/04 15:48:24;;;;;;;7.97;7.57;;;12.70;50.90;;;;;;4915935;29;20218;-72
2023/04/04 15:50:50;;;;;;;8.47;7.77;;;12.90;51.90;;;;;;4916358;29;20190;-72